Kezdőlap
METAR-TAF:

METAR-TAF

Repülőterek :

Ilam, Irán

földrajzi szélesség: 33-35-09N, földrajzi hosszúság: 046-24-20E, magasság: 1334 m

Jelenlegi meteorológiai megfigyelések

A jelentés 24 perccel ezelõtt készült, 01:00 UTC
Kelet-délkeleti szél 4 kt
Hőmérséklet 4°C
Páratartalom 65%
Légköri nyomás 1023 hPa
Látótávolság 10 km, vagy több
felhőtlen 1500 m magasságban, és nincs gomolyfelhõ

METAR: OICI 050100Z 12004KT CAVOK 04/M02 Q1023

Idő: 05:54 (01:24 UTC)

Előrejelzés

A jelentés 2 órával és 14 perccel ezelõtt készült, 23:10 UTC
Az előrejelzés 05-én 00 óra UTC és 06-én 06 óra UTC között érvényes
Keleti szél 8 kt
Látótávolság: 8000 m
05-én 09 óra UTC és 05-én 18 óra UTC között ideiglenes
Nyugati szél 10 kt
Kevés felhő 3000 lábon, Cumulonimbus.
Szórványos felhőzet 3500 lábon
Szakadozott felhőzet 9000 lábon

TAF: OICI 042310Z 0500/0606 08008KT 8000 NSC TEMPO 0509/0518 26010KT FEW030CB SCT035 BKN090

Meteorológiai megfigyelések és előrejelzések több, mint 4000 repülőtéren (METAR és TAF jelentéseket).

A térképen piros és sárga pontok jelzik az elérhető meteorológiai állomásokat.

Mozgassa az egeret a pont fölött, hogy megjelenjen az állomás neve.

Azután kattintson az időjárási megfigyelések és előrejelzések megtekintéséhez.

A térkép megváltoztatása: kattintson a fekete keresztel jelölt zöld gombra ráközelítéshez, a vonallal jelölt zöld gombra távolításhoz, vagy a zöld nyilakra a szomszédos térképek eléréséhez.


METAR-TAF: